createdAt,value
2018-09-28T00:02:09.108Z,27.90
2018-09-28T00:05:33.632Z,28.73
2018-09-28T00:08:58.060Z,25.80
2018-09-28T00:12:22.517Z,27.37
2018-09-28T00:15:46.953Z,27.67
2018-09-28T00:19:11.368Z,26.40
2018-09-28T00:22:35.876Z,32.17
2018-09-28T00:26:00.309Z,27.57
2018-09-28T00:29:24.715Z,27.37
2018-09-28T00:32:49.137Z,37.47
2018-09-28T00:36:13.616Z,32.87
2018-09-28T00:39:38.067Z,34.97
2018-09-28T00:43:02.471Z,28.50
2018-09-28T00:46:26.899Z,32.00
2018-09-28T00:49:51.279Z,29.87
2018-09-28T00:53:15.755Z,30.43
2018-09-28T00:56:40.168Z,31.53
2018-09-28T01:00:04.604Z,30.67
2018-09-28T01:03:29.011Z,32.67
2018-09-28T01:06:53.433Z,33.83
2018-09-28T01:10:17.841Z,37.30
2018-09-28T01:13:42.324Z,35.90
2018-09-28T01:17:06.750Z,32.70
2018-09-28T01:20:31.149Z,30.43
2018-09-28T01:23:55.573Z,31.63
2018-09-28T01:27:20.014Z,36.47
2018-09-28T01:30:44.387Z,35.60
2018-09-28T01:34:08.825Z,30.87
2018-09-28T01:37:33.252Z,33.07
2018-09-28T01:40:57.700Z,34.03
2018-09-28T01:44:22.190Z,33.33
2018-09-28T01:47:46.652Z,28.23
2018-09-28T01:51:11.113Z,30.87
2018-09-28T01:54:35.551Z,36.37
2018-09-28T01:57:59.994Z,33.37
2018-09-28T02:01:24.528Z,33.37
2018-09-28T02:04:49.132Z,32.33
2018-09-28T02:08:13.578Z,35.43
2018-09-28T02:11:37.975Z,33.43
2018-09-28T02:15:02.367Z,34.03
2018-09-28T02:18:26.781Z,35.90
2018-09-28T02:21:51.227Z,31.50
2018-09-28T02:25:15.655Z,29.93
2018-09-28T02:28:40.055Z,30.53
2018-09-28T02:32:04.485Z,37.93
2018-09-28T02:35:28.915Z,30.93
2018-09-28T02:38:53.468Z,36.87
2018-09-28T02:42:17.881Z,32.53
2018-09-28T02:45:42.296Z,32.67
2018-09-28T02:49:07.009Z,35.20
2018-09-28T02:52:31.443Z,28.53
2018-09-28T02:55:55.860Z,34.63
2018-09-28T02:59:20.330Z,33.90
2018-09-28T03:02:44.764Z,32.17
2018-09-28T03:06:09.171Z,32.03
2018-09-28T03:09:33.607Z,30.57
2018-09-28T03:12:58.060Z,30.90
2018-09-28T03:16:22.469Z,36.43
2018-09-28T03:19:46.832Z,33.90
2018-09-28T03:23:11.244Z,33.37
2018-09-28T03:26:35.700Z,31.17
2018-09-28T03:30:00.110Z,36.07
2018-09-28T03:33:24.512Z,39.23
2018-09-28T03:36:48.946Z,36.20
2018-09-28T03:40:13.370Z,30.70
2018-09-28T03:43:37.789Z,33.37
2018-09-28T03:47:02.489Z,29.10
2018-09-28T03:50:26.931Z,29.80
2018-09-28T03:53:51.427Z,30.73
2018-09-28T03:57:15.884Z,32.10
2018-09-28T04:00:40.294Z,30.17
2018-09-28T04:04:04.771Z,36.10
2018-09-28T04:07:29.190Z,32.83
2018-09-28T04:10:53.610Z,33.20
2018-09-28T04:14:17.988Z,35.30
2018-09-28T04:17:42.711Z,38.63
2018-09-28T04:21:07.133Z,36.33
2018-09-28T04:24:32.504Z,37.27
2018-09-28T04:27:56.925Z,36.77
2018-09-28T04:31:21.309Z,34.33
2018-09-28T04:34:45.756Z,39.73
2018-09-28T04:38:10.158Z,35.03
2018-09-28T04:41:34.567Z,38.00
2018-09-28T04:44:59.060Z,42.30
2018-09-28T04:48:23.457Z,42.37
2018-09-28T04:51:47.908Z,36.30
2018-09-28T04:55:12.368Z,36.47
2018-09-28T04:58:36.826Z,43.63
2018-09-28T05:02:01.245Z,42.57
2018-09-28T05:05:25.673Z,46.60
2018-09-28T05:08:50.116Z,46.20
2018-09-28T05:12:14.547Z,51.47
2018-09-28T05:15:38.955Z,45.67
2018-09-28T05:19:03.397Z,44.50
2018-09-28T05:22:27.832Z,43.57
2018-09-28T05:25:52.266Z,47.77
2018-09-28T05:29:16.720Z,46.67
2018-09-28T05:32:41.285Z,44.53
2018-09-28T05:36:05.771Z,52.10
2018-09-28T05:39:30.267Z,50.17
2018-09-28T05:42:54.685Z,52.27
2018-09-28T05:46:19.137Z,48.57
2018-09-28T05:49:43.638Z,54.47
2018-09-28T05:53:08.100Z,52.60
2018-09-28T05:56:32.525Z,48.97
2018-09-28T06:00:08.783Z,49.07
2018-09-28T06:03:33.237Z,49.90
2018-09-28T06:06:57.703Z,53.30
2018-09-28T06:10:22.172Z,52.10
2018-09-28T06:13:46.547Z,66.53
2018-09-28T06:17:11.011Z,58.33
2018-09-28T06:20:35.685Z,68.83
2018-09-28T06:24:00.299Z,74.37
2018-09-28T06:27:24.703Z,65.47
2018-09-28T06:30:49.128Z,66.97
2018-09-28T06:34:13.589Z,71.47
2018-09-28T06:37:38.015Z,77.40
2018-09-28T06:41:02.446Z,71.50
2018-09-28T06:44:26.904Z,73.00
2018-09-28T06:47:51.363Z,79.27
2018-09-28T06:51:15.818Z,67.40
2018-09-28T06:54:40.222Z,70.40
2018-09-28T06:58:04.670Z,68.37
2018-09-28T07:01:29.071Z,75.53
2018-09-28T07:04:53.485Z,70.30
2018-09-28T07:08:17.915Z,67.80
2018-09-28T07:11:42.482Z,63.37
2018-09-28T07:15:07.072Z,53.67
2018-09-28T07:18:34.571Z,51.30
2018-09-28T07:21:59.009Z,55.27
2018-09-28T07:25:23.476Z,48.43
2018-09-28T07:28:47.911Z,50.47
2018-09-28T07:32:12.295Z,37.13
2018-09-28T07:35:36.689Z,39.70
2018-09-28T07:39:01.138Z,28.27
2018-09-28T07:42:25.520Z,24.37
2018-09-28T07:45:49.932Z,27.03
2018-09-28T07:49:14.402Z,26.87
2018-09-28T07:52:38.823Z,24.63
2018-09-28T07:56:03.249Z,25.37
2018-09-28T07:59:27.656Z,28.87
2018-09-28T08:02:52.085Z,20.73
2018-09-28T08:06:16.498Z,23.70
2018-09-28T08:09:40.930Z,26.33
2018-09-28T08:13:05.598Z,22.77
2018-09-28T08:16:30.039Z,20.43
2018-09-28T08:19:54.441Z,21.97
2018-09-28T08:23:18.976Z,20.43
2018-09-28T08:26:43.385Z,17.80
2018-09-28T08:30:07.850Z,22.22
2018-09-28T08:33:32.355Z,10.13
2018-09-28T08:36:56.858Z,13.93
2018-09-28T08:40:21.297Z,13.70
2018-09-28T08:43:45.912Z,11.30
2018-09-28T08:47:10.322Z,16.25
2018-09-28T08:50:34.758Z,16.82
2018-09-28T08:53:59.177Z,12.43
2018-09-28T08:57:23.656Z,17.05
2018-09-28T09:00:48.190Z,12.68
2018-09-28T09:04:12.583Z,10.53
2018-09-28T09:07:37.041Z,15.23
2018-09-28T09:11:01.568Z,14.83
2018-09-28T09:14:26.061Z,14.60
2018-09-28T09:17:50.484Z,9.70
2018-09-28T09:21:14.895Z,7.62
2018-09-28T09:24:39.287Z,14.65
2018-09-28T09:28:03.693Z,25.00
2018-09-28T09:31:28.130Z,19.45
2018-09-28T09:34:52.568Z,10.68
2018-09-28T09:38:16.989Z,12.13
2018-09-28T09:41:41.431Z,22.10
2018-09-28T09:45:05.912Z,11.60
2018-09-28T09:48:30.372Z,17.35
2018-09-28T09:51:54.845Z,19.50
2018-09-28T09:55:19.280Z,16.48
2018-09-28T09:58:43.743Z,15.00
2018-09-28T10:02:13.275Z,10.50
2018-09-28T10:05:37.730Z,18.85
2018-09-28T10:09:02.178Z,14.75
2018-09-28T10:12:26.795Z,13.18
2018-09-28T10:15:51.217Z,11.15
2018-09-28T10:19:15.744Z,11.88
2018-09-28T10:22:40.218Z,9.25
2018-09-28T10:26:04.748Z,12.90
2018-09-28T10:29:29.209Z,12.28
2018-09-28T10:32:53.692Z,9.35
2018-09-28T10:36:18.175Z,13.43
2018-09-28T10:39:42.734Z,8.85
2018-09-28T10:43:07.209Z,11.63
2018-09-28T10:46:31.704Z,13.43
2018-09-28T10:49:56.078Z,11.43
2018-09-28T10:53:20.529Z,11.08
2018-09-28T10:56:44.951Z,11.20
2018-09-28T11:00:09.520Z,8.35
2018-09-28T11:03:34.012Z,18.80
2018-09-28T11:06:58.406Z,19.57
2018-09-28T11:10:22.952Z,17.05
2018-09-28T11:13:47.395Z,17.60
2018-09-28T11:17:11.812Z,12.00
2018-09-28T11:20:36.254Z,10.20
2018-09-28T11:24:00.673Z,11.38
2018-09-28T11:27:25.233Z,13.00
2018-09-28T11:30:49.676Z,11.70
2018-09-28T11:34:14.096Z,15.18
2018-09-28T11:37:38.841Z,9.48
2018-09-28T11:41:03.293Z,11.88
2018-09-28T11:44:27.748Z,10.08
2018-09-28T11:47:52.149Z,12.88
2018-09-28T11:51:16.590Z,13.90
2018-09-28T11:54:41.032Z,11.18
2018-09-28T11:58:05.503Z,12.58
2018-09-28T12:01:29.971Z,12.35
2018-09-28T12:04:54.410Z,14.28
2018-09-28T12:08:18.820Z,9.95
2018-09-28T12:11:44.388Z,16.00
2018-09-28T12:15:08.889Z,11.20
2018-09-28T12:18:33.340Z,8.18
2018-09-28T12:21:57.771Z,10.82
2018-09-28T12:25:22.246Z,11.05
2018-09-28T12:28:46.686Z,7.95
2018-09-28T12:32:11.134Z,9.43
2018-09-28T12:35:35.628Z,16.10
2018-09-28T12:39:00.075Z,9.60
2018-09-28T12:42:24.520Z,15.05
2018-09-28T12:45:48.870Z,7.35
2018-09-28T12:49:13.312Z,13.48
2018-09-28T12:52:37.751Z,7.53
2018-09-28T12:56:02.150Z,11.10
2018-09-28T12:59:26.610Z,15.58
2018-09-28T13:02:51.110Z,12.47
2018-09-28T13:06:15.579Z,9.13
2018-09-28T13:09:40.016Z,9.33
2018-09-28T13:13:04.474Z,6.30
2018-09-28T13:16:28.965Z,11.78
2018-09-28T13:19:53.440Z,7.92
2018-09-28T13:23:17.873Z,8.60
2018-09-28T13:26:42.421Z,8.90
2018-09-28T13:30:07.412Z,9.15
2018-09-28T13:33:31.849Z,7.95
2018-09-28T13:36:56.374Z,6.03
2018-09-28T13:40:20.888Z,13.22
2018-09-28T13:43:45.308Z,10.00
2018-09-28T13:47:15.480Z,9.10
2018-09-28T13:50:40.075Z,4.95
2018-09-28T13:54:04.376Z,10.85
2018-09-28T13:57:28.796Z,7.20
2018-09-28T14:00:53.249Z,7.65
2018-09-28T14:04:17.772Z,8.05
2018-09-28T14:07:42.221Z,10.53
2018-09-28T14:11:06.722Z,6.28
2018-09-28T14:14:31.260Z,4.72
2018-09-28T14:17:55.724Z,6.70
2018-09-28T14:21:20.204Z,3.67
2018-09-28T14:24:44.642Z,4.05
2018-09-28T14:28:09.219Z,8.05
2018-09-28T14:31:33.559Z,4.37
2018-09-28T14:34:58.043Z,3.77
2018-09-28T14:38:25.542Z,8.05
2018-09-28T14:41:49.991Z,5.08
2018-09-28T14:45:14.338Z,6.92
2018-09-28T14:48:38.792Z,8.83
2018-09-28T14:52:03.219Z,7.95
2018-09-28T14:55:27.663Z,4.55
2018-09-28T14:58:52.192Z,7.00
2018-09-28T15:02:16.570Z,5.60
2018-09-28T15:05:41.007Z,5.53
2018-09-28T15:09:07.309Z,6.33
2018-09-28T15:12:31.810Z,6.22
2018-09-28T15:15:56.203Z,8.55
2018-09-28T15:19:20.706Z,8.55
2018-09-28T15:22:45.110Z,6.95
2018-09-28T15:26:09.571Z,3.05
2018-09-28T15:29:34.027Z,7.87
2018-09-28T15:32:58.602Z,5.17
2018-09-28T15:36:23.061Z,4.78
2018-09-28T15:39:47.504Z,10.25
2018-09-28T15:43:11.943Z,8.25
2018-09-28T15:46:36.407Z,5.92
2018-09-28T15:50:00.814Z,9.23
2018-09-28T15:53:25.269Z,5.00
2018-09-28T15:56:49.809Z,5.28
2018-09-28T16:00:14.144Z,9.03
2018-09-28T16:03:38.599Z,6.03
2018-09-28T16:07:03.028Z,5.45
2018-09-28T16:10:30.338Z,3.87
2018-09-28T16:13:54.749Z,5.45
2018-09-28T16:17:19.203Z,6.47
2018-09-28T16:20:43.605Z,7.35
2018-09-28T16:24:08.131Z,9.58
2018-09-28T16:27:32.595Z,7.87
2018-09-28T16:30:57.071Z,5.67
2018-09-28T16:34:21.534Z,5.97
2018-09-28T16:37:45.955Z,9.10
2018-09-28T16:41:10.396Z,5.22
2018-09-28T16:44:34.800Z,4.75
2018-09-28T16:47:59.212Z,3.77
2018-09-28T16:51:23.651Z,6.28
2018-09-28T16:54:48.113Z,6.87
2018-09-28T16:58:12.514Z,5.28
2018-09-28T17:01:36.995Z,4.28
2018-09-28T17:05:01.452Z,7.25
2018-09-28T17:08:25.860Z,7.78
2018-09-28T17:11:50.322Z,6.95
2018-09-28T17:15:14.760Z,4.75
2018-09-28T17:18:39.276Z,7.28
2018-09-28T17:22:03.732Z,10.90
2018-09-28T17:25:28.181Z,4.03
2018-09-28T17:28:52.643Z,7.00
2018-09-28T17:32:17.139Z,14.07
2018-09-28T17:35:41.575Z,6.97
2018-09-28T17:39:10.229Z,9.48
2018-09-28T17:42:34.745Z,7.90
2018-09-28T17:45:59.248Z,12.18
2018-09-28T17:49:23.663Z,6.37
2018-09-28T17:52:48.132Z,3.70
2018-09-28T17:56:12.578Z,10.78
2018-09-28T17:59:37.545Z,13.30
2018-09-28T18:03:02.093Z,6.95
2018-09-28T18:06:28.785Z,7.12
2018-09-28T18:09:53.237Z,3.58
2018-09-28T18:13:17.710Z,7.05
2018-09-28T18:16:42.242Z,11.08
2018-09-28T18:20:06.786Z,10.15
2018-09-28T18:23:31.344Z,7.45
2018-09-28T18:26:55.731Z,6.60
2018-09-28T18:30:21.208Z,7.75
2018-09-28T18:33:46.711Z,7.10
2018-09-28T18:37:12.401Z,8.53
2018-09-28T18:40:40.250Z,7.07
2018-09-28T18:44:06.709Z,5.50
2018-09-28T18:47:31.710Z,8.13
2018-09-28T18:50:56.614Z,5.77
2018-09-28T18:54:22.829Z,13.50
2018-09-28T18:57:47.928Z,9.23
2018-09-28T19:01:13.116Z,7.97
2018-09-28T19:04:38.658Z,6.70
2018-09-28T19:08:04.139Z,5.67
2018-09-28T19:11:29.620Z,7.40
2018-09-28T19:14:55.054Z,9.73
2018-09-28T19:18:20.605Z,8.10
2018-09-28T19:21:45.907Z,8.30
2018-09-28T19:25:11.116Z,12.93
2018-09-28T19:28:36.000Z,6.77
2018-09-28T19:32:01.758Z,5.77
2018-09-28T19:35:26.713Z,10.07
2018-09-28T19:38:51.787Z,7.13
2018-09-28T19:42:17.213Z,7.50
2018-09-28T19:45:42.667Z,10.30
2018-09-28T19:49:07.775Z,6.87
2018-09-28T19:52:33.088Z,6.50
2018-09-28T19:55:58.296Z,7.33
2018-09-28T19:59:23.482Z,6.27
2018-09-28T20:02:48.226Z,5.10
2018-09-28T20:06:13.436Z,6.60
2018-09-28T20:09:38.585Z,10.13
2018-09-28T20:13:03.681Z,11.23
2018-09-28T20:16:28.448Z,4.50
2018-09-28T20:19:53.314Z,7.93
2018-09-28T20:23:18.599Z,8.57
2018-09-28T20:26:43.780Z,4.63
2018-09-28T20:30:08.812Z,6.27
2018-09-28T20:33:37.901Z,9.33
2018-09-28T20:37:03.002Z,8.17
2018-09-28T20:40:31.239Z,6.07
2018-09-28T20:43:58.340Z,6.43
2018-09-28T20:47:24.580Z,6.57
2018-09-28T20:50:50.684Z,5.90
2018-09-28T20:54:15.633Z,6.87
2018-09-28T20:57:40.095Z,4.63
2018-09-28T21:01:04.754Z,10.03
2018-09-28T21:04:30.036Z,7.13
2018-09-28T21:07:55.194Z,6.40
2018-09-28T21:11:20.769Z,7.97
2018-09-28T21:14:48.451Z,12.43
2018-09-28T21:18:13.202Z,5.50
2018-09-28T21:21:39.099Z,7.83
2018-09-28T21:25:03.928Z,7.90
2018-09-28T21:28:29.630Z,10.57
2018-09-28T21:32:03.375Z,7.47
2018-09-28T21:35:29.806Z,9.17
2018-09-28T21:38:55.001Z,11.80
2018-09-28T21:42:23.408Z,18.20
2018-09-28T21:45:49.923Z,9.67
2018-09-28T21:49:15.478Z,7.70
2018-09-28T21:52:41.119Z,8.47
2018-09-28T21:56:06.222Z,8.13
2018-09-28T21:59:31.344Z,8.33
2018-09-28T22:02:57.446Z,9.27
2018-09-28T22:06:23.067Z,9.20
2018-09-28T22:09:48.632Z,6.17
2018-09-28T22:13:13.362Z,6.23
2018-09-28T22:16:38.167Z,6.93
2018-09-28T22:20:05.888Z,6.50
2018-09-28T22:23:30.327Z,9.87
2018-09-28T22:26:54.788Z,10.67
2018-09-28T22:30:19.347Z,7.17
2018-09-28T22:33:43.953Z,5.33
2018-09-28T22:37:08.768Z,4.63
2018-09-28T22:40:33.621Z,6.10
2018-09-28T22:43:58.096Z,3.90
2018-09-28T22:47:22.597Z,6.77
2018-09-28T22:50:47.147Z,11.57
2018-09-28T22:54:11.597Z,6.03
2018-09-28T22:57:36.386Z,7.77
2018-09-28T23:01:00.817Z,9.63
2018-09-28T23:04:25.341Z,5.00
2018-09-28T23:07:49.801Z,7.33
2018-09-28T23:11:14.255Z,3.53
2018-09-28T23:14:38.684Z,6.47
2018-09-28T23:18:03.907Z,5.93
2018-09-28T23:21:28.622Z,9.57
2018-09-28T23:24:53.080Z,8.30
2018-09-28T23:28:17.512Z,9.73
2018-09-28T23:31:41.975Z,8.13
2018-09-28T23:35:06.505Z,7.77
2018-09-28T23:38:30.999Z,10.80
2018-09-28T23:42:58.300Z,8.83
2018-09-28T23:46:22.831Z,11.70
2018-09-28T23:49:47.252Z,5.97
2018-09-28T23:53:11.756Z,5.67
2018-09-28T23:56:36.250Z,11.17
